createdAt,value
2023-02-14T00:01:20.750Z,99587.84
2023-02-14T00:03:47.883Z,99579.94
2023-02-14T00:06:15.909Z,99581.47
2023-02-14T00:08:45.133Z,99577.50
2023-02-14T00:11:13.256Z,99584.63
2023-02-14T00:13:40.608Z,99583.84
2023-02-14T00:16:07.531Z,99587.13
2023-02-14T00:18:53.204Z,99572.16
2023-02-14T00:21:19.996Z,99580.03
2023-02-14T00:23:46.883Z,99586.34
2023-02-14T00:26:15.201Z,99574.44
2023-02-14T00:28:43.321Z,99574.38
2023-02-14T00:31:10.411Z,99580.31
2023-02-14T00:33:38.037Z,99578.31
2023-02-14T00:36:07.300Z,99579.94
2023-02-14T00:38:34.875Z,99571.22
2023-02-14T00:41:03.867Z,99576.31
2023-02-14T00:43:31.599Z,99566.44
2023-02-14T00:46:03.127Z,99570.00
2023-02-14T00:48:30.386Z,99571.97
2023-02-14T00:50:57.813Z,99570.81
2023-02-14T00:53:24.913Z,99581.50
2023-02-14T00:55:52.414Z,99578.00
2023-02-14T00:58:20.337Z,99576.81
2023-02-14T01:00:48.629Z,99579.09
2023-02-14T01:03:15.493Z,99574.31
2023-02-14T01:05:42.456Z,99577.06
2023-02-14T01:08:09.398Z,99571.13
2023-02-14T01:10:38.115Z,99567.94
2023-02-14T01:13:05.301Z,99573.91
2023-02-14T01:15:43.656Z,99575.09
2023-02-14T01:18:11.934Z,99581.81
2023-02-14T01:20:40.555Z,99580.63
2023-02-14T01:23:07.869Z,99577.50
2023-02-14T01:25:37.325Z,99571.16
2023-02-14T01:28:04.943Z,99567.19
2023-02-14T01:30:34.063Z,99575.47
2023-02-14T01:33:00.994Z,99565.16
2023-02-14T01:35:29.142Z,99564.72
2023-02-14T01:37:59.086Z,99573.34
2023-02-14T01:40:27.844Z,99565.81
2023-02-14T01:42:57.496Z,99567.03
2023-02-14T01:45:26.897Z,99565.41
2023-02-14T01:47:56.744Z,99577.25
2023-02-14T01:50:37.025Z,99575.63
2023-02-14T01:53:09.300Z,99574.53
2023-02-14T01:55:42.432Z,99576.53
2023-02-14T01:58:19.194Z,99572.13
2023-02-14T02:01:00.140Z,99558.63
2023-02-14T02:03:46.721Z,99570.47
2023-02-14T02:06:18.278Z,99566.94
2023-02-14T02:09:22.891Z,99558.25
2023-02-14T02:11:50.572Z,99555.13
2023-02-14T02:14:22.190Z,99561.41
2023-02-14T02:17:08.013Z,99563.00
2023-02-14T02:20:03.062Z,99556.25
2023-02-14T02:22:51.892Z,99560.22
2023-02-14T02:25:34.163Z,99551.50
2023-02-14T02:28:45.103Z,99551.06
2023-02-14T02:31:49.872Z,99550.22
2023-02-14T02:34:35.219Z,99550.94
2023-02-14T02:37:22.335Z,99554.47
2023-02-14T02:40:21.492Z,99549.31
2023-02-14T02:43:20.679Z,99544.88
2023-02-14T02:46:44.451Z,99539.66
2023-02-14T02:49:50.662Z,99538.03
2023-02-14T02:52:44.126Z,99540.78
2023-02-14T02:55:52.114Z,99537.97
2023-02-14T02:58:22.110Z,99541.94
2023-02-14T03:00:52.795Z,99533.59
2023-02-14T03:03:43.904Z,99526.91
2023-02-14T03:06:11.055Z,99546.69
2023-02-14T03:08:37.977Z,99537.56
2023-02-14T03:11:06.700Z,99536.34
2023-02-14T03:14:01.673Z,99543.13
2023-02-14T03:16:28.570Z,99546.34
2023-02-14T03:18:59.713Z,99550.66
2023-02-14T03:21:58.153Z,99553.09
2023-02-14T03:24:32.440Z,99549.59
2023-02-14T03:27:22.058Z,99545.22
2023-02-14T03:30:13.017Z,99546.81
2023-02-14T03:32:45.789Z,99548.38
2023-02-14T03:35:23.653Z,99554.69
2023-02-14T03:38:11.287Z,99553.19
2023-02-14T03:40:43.378Z,99556.38
2023-02-14T03:43:24.635Z,99565.84
2023-02-14T03:46:11.749Z,99557.16
2023-02-14T03:48:40.659Z,99548.47
2023-02-14T03:51:11.668Z,99559.56
2023-02-14T03:53:43.857Z,99555.25
2023-02-14T03:56:14.074Z,99551.75
2023-02-14T03:58:48.862Z,99558.09
2023-02-14T04:01:26.823Z,99553.38
2023-02-14T04:03:57.163Z,99559.72
2023-02-14T04:06:24.388Z,99561.75
2023-02-14T04:08:51.280Z,99551.09
2023-02-14T04:11:18.136Z,99550.75
2023-02-14T04:13:44.892Z,99548.78
2023-02-14T04:16:11.738Z,99559.09
2023-02-14T04:18:57.084Z,99555.53
2023-02-14T04:21:23.883Z,99563.06
2023-02-14T04:23:50.683Z,99553.19
2023-02-14T04:26:17.506Z,99551.22
2023-02-14T04:28:44.294Z,99563.84
2023-02-14T04:31:11.621Z,99555.53
2023-02-14T04:33:39.428Z,99552.69
2023-02-14T04:36:06.641Z,99558.63
2023-02-14T04:38:33.739Z,99553.88
2023-02-14T04:41:00.989Z,99552.66
2023-02-14T04:43:28.679Z,99551.88
2023-02-14T04:45:55.511Z,99551.06
2023-02-14T04:48:22.261Z,99548.63
2023-02-14T04:50:53.692Z,99546.66
2023-02-14T04:53:21.093Z,99549.06
2023-02-14T04:55:51.398Z,99550.22
2023-02-14T04:58:18.452Z,99537.59
2023-02-14T05:00:45.322Z,99546.28
2023-02-14T05:03:12.243Z,99543.91
2023-02-14T05:05:39.026Z,99549.47
2023-02-14T05:08:05.882Z,99539.94
2023-02-14T05:10:32.646Z,99542.34
2023-02-14T05:13:01.305Z,99532.81
2023-02-14T05:15:28.074Z,99536.00
2023-02-14T05:17:54.826Z,99526.47
2023-02-14T05:20:21.656Z,99531.28
2023-02-14T05:22:48.403Z,99532.13
2023-02-14T05:25:15.295Z,99532.53
2023-02-14T05:27:42.209Z,99538.91
2023-02-14T05:30:10.149Z,99536.56
2023-02-14T05:32:37.214Z,99539.72
2023-02-14T05:35:04.437Z,99536.16
2023-02-14T05:37:31.588Z,99540.50
2023-02-14T05:39:58.359Z,99527.44
2023-02-14T05:42:25.191Z,99538.19
2023-02-14T05:44:51.958Z,99541.75
2023-02-14T05:47:18.765Z,99542.16
2023-02-14T05:49:45.525Z,99544.56
2023-02-14T05:52:12.291Z,99548.88
2023-02-14T05:54:39.097Z,99541.81
2023-02-14T05:57:05.933Z,99546.13
2023-02-14T05:59:32.700Z,99541.00
2023-02-14T06:01:59.581Z,99542.88
2023-02-14T06:04:26.626Z,99534.91
2023-02-14T06:06:53.430Z,99534.44
2023-02-14T06:09:20.217Z,99538.38
2023-02-14T06:11:47.079Z,99536.06
2023-02-14T06:14:14.004Z,99546.78
2023-02-14T06:16:40.819Z,99543.28
2023-02-14T06:19:08.053Z,99550.03
2023-02-14T06:21:35.580Z,99549.63
2023-02-14T06:24:02.449Z,99545.25
2023-02-14T06:26:29.491Z,99550.81
2023-02-14T06:28:58.310Z,99543.28
2023-02-14T06:31:26.090Z,99545.59
2023-02-14T06:33:53.306Z,99541.97
2023-02-14T06:36:20.841Z,99545.56
2023-02-14T06:38:48.547Z,99546.34
2023-02-14T06:41:17.276Z,99538.00
2023-02-14T06:43:45.590Z,99542.44
2023-02-14T06:46:12.450Z,99541.59
2023-02-14T06:48:39.358Z,99530.16
2023-02-14T06:51:06.361Z,99538.78
2023-02-14T06:53:33.165Z,99539.94
2023-02-14T06:55:59.982Z,99543.56
2023-02-14T06:58:26.923Z,99535.31
2023-02-14T07:00:58.821Z,99535.69
2023-02-14T07:03:27.011Z,99535.25
2023-02-14T07:05:54.337Z,99539.94
2023-02-14T07:08:21.088Z,99539.94
2023-02-14T07:10:47.833Z,99536.78
2023-02-14T07:13:14.557Z,99535.97
2023-02-14T07:15:41.348Z,99536.06
2023-02-14T07:18:11.752Z,99543.63
2023-02-14T07:20:38.551Z,99535.69
2023-02-14T07:23:05.376Z,99537.69
2023-02-14T07:25:32.182Z,99540.91
2023-02-14T07:27:59.101Z,99536.56
2023-02-14T07:30:26.001Z,99537.72
2023-02-14T07:32:52.773Z,99530.50
2023-02-14T07:35:19.661Z,99525.28
2023-02-14T07:37:46.420Z,99528.75
2023-02-14T07:40:15.154Z,99535.88
2023-02-14T07:42:42.732Z,99527.19
2023-02-14T07:45:21.192Z,99518.81
2023-02-14T07:47:50.118Z,99516.72
2023-02-14T07:50:17.709Z,99518.63
2023-02-14T07:52:45.423Z,99517.78
2023-02-14T07:55:12.975Z,99518.59
2023-02-14T07:57:40.044Z,99513.03
2023-02-14T08:00:07.784Z,99520.53
2023-02-14T08:02:39.086Z,99516.91
2023-02-14T08:05:06.224Z,99511.72
2023-02-14T08:07:33.125Z,99512.56
2023-02-14T08:09:59.881Z,99517.69
2023-02-14T08:12:45.344Z,99510.25
2023-02-14T08:15:30.793Z,99500.03
2023-02-14T08:17:57.623Z,99507.66
2023-02-14T08:20:24.615Z,99506.94
2023-02-14T08:22:51.496Z,99508.53
2023-02-14T08:25:18.316Z,99503.41
2023-02-14T08:27:45.251Z,99501.75
2023-02-14T08:30:12.570Z,99505.22
2023-02-14T08:32:39.693Z,99504.31
2023-02-14T08:35:07.299Z,99503.88
2023-02-14T08:37:34.378Z,99507.03
2023-02-14T08:40:01.299Z,99507.47
2023-02-14T08:42:28.146Z,99499.69
2023-02-14T08:44:55.022Z,99507.66
2023-02-14T08:47:21.928Z,99507.25
2023-02-14T08:49:48.796Z,99500.94
2023-02-14T08:52:15.753Z,99507.28
2023-02-14T08:54:42.693Z,99505.75
2023-02-14T08:57:09.559Z,99515.25
2023-02-14T08:59:36.354Z,99500.22
2023-02-14T09:02:03.355Z,99497.03
2023-02-14T09:04:30.220Z,99499.41
2023-02-14T09:06:57.135Z,99503.25
2023-02-14T09:09:23.923Z,99501.56
2023-02-14T09:11:50.763Z,99501.34
2023-02-14T09:14:19.222Z,99497.72
2023-02-14T09:16:46.053Z,99496.41
2023-02-14T09:19:12.921Z,99499.44
2023-02-14T09:21:40.615Z,99498.63
2023-02-14T09:24:07.516Z,99496.13
2023-02-14T09:26:36.984Z,99492.22
2023-02-14T09:29:03.786Z,99496.94
2023-02-14T09:31:30.903Z,99500.88
2023-02-14T09:34:17.118Z,99490.56
2023-02-14T09:37:03.208Z,99492.81
2023-02-14T09:39:30.631Z,99492.78
2023-02-14T09:42:12.797Z,99496.06
2023-02-14T09:44:46.241Z,99495.34
2023-02-14T09:47:19.189Z,99496.13
2023-02-14T09:49:47.894Z,99483.09
2023-02-14T09:52:18.645Z,99488.78
2023-02-14T09:54:53.490Z,99491.13
2023-02-14T09:57:50.461Z,99493.06
2023-02-14T10:00:26.620Z,99490.78
2023-02-14T10:03:31.189Z,99489.19
2023-02-14T10:06:19.592Z,99488.09
2023-02-14T10:09:19.143Z,99485.53
2023-02-14T10:11:48.049Z,99485.22
2023-02-14T10:14:16.981Z,99486.81
2023-02-14T10:17:04.312Z,99478.88
2023-02-14T10:19:41.804Z,99486.28
2023-02-14T10:22:23.934Z,99480.66
2023-02-14T10:25:06.146Z,99482.25
2023-02-14T10:27:36.328Z,99475.50
2023-02-14T10:30:12.961Z,99475.06
2023-02-14T10:32:57.725Z,99477.47
2023-02-14T10:36:02.153Z,99476.00
2023-02-14T10:38:41.370Z,99467.66
2023-02-14T10:41:21.064Z,99458.97
2023-02-14T10:44:25.719Z,99467.25
2023-02-14T10:47:23.663Z,99463.22
2023-02-14T10:50:11.253Z,99466.41
2023-02-14T10:52:46.058Z,99468.09
2023-02-14T10:55:57.358Z,99464.88
2023-02-14T10:58:27.938Z,99473.13
2023-02-14T11:01:09.429Z,99469.88
2023-02-14T11:03:39.202Z,99486.09
2023-02-14T11:06:07.318Z,99477.22
2023-02-14T11:08:39.783Z,99478.81
2023-02-14T11:11:42.152Z,99473.38
2023-02-14T11:17:31.706Z,99465.88
2023-02-14T11:20:09.677Z,99467.44
2023-02-14T11:22:36.626Z,99470.88
2023-02-14T11:25:18.593Z,99470.00
2023-02-14T11:27:50.358Z,99476.28
2023-02-14T11:30:28.204Z,99481.72
2023-02-14T11:32:57.684Z,99474.00
2023-02-14T11:35:33.843Z,99459.16
2023-02-14T11:38:03.226Z,99466.94
2023-02-14T11:40:40.503Z,99460.59
2023-02-14T11:43:16.157Z,99461.31
2023-02-14T11:45:44.630Z,99458.47
2023-02-14T11:48:37.609Z,99451.63
2023-02-14T11:51:16.735Z,99456.31
2023-02-14T11:53:43.713Z,99449.25
2023-02-14T11:56:11.244Z,99447.41
2023-02-14T11:58:41.948Z,99443.84
2023-02-14T12:01:20.919Z,99446.00
2023-02-14T12:03:49.030Z,99446.53
2023-02-14T12:06:30.614Z,99432.31
2023-02-14T12:09:23.384Z,99437.88
2023-02-14T12:11:57.405Z,99433.91
2023-02-14T12:14:27.697Z,99426.34
2023-02-14T12:17:16.250Z,99429.88
2023-02-14T12:20:12.121Z,99413.53
2023-02-14T12:22:55.581Z,99425.25
2023-02-14T12:25:31.604Z,99412.97
2023-02-14T12:28:08.899Z,99417.47
2023-02-14T12:30:36.202Z,99412.88
2023-02-14T12:33:05.976Z,99402.09
2023-02-14T12:35:49.884Z,99403.56
2023-02-14T12:38:34.939Z,99407.06
2023-02-14T12:41:31.084Z,99392.78
2023-02-14T12:44:06.877Z,99393.22
2023-02-14T12:46:54.730Z,99386.81
2023-02-14T12:49:34.647Z,99380.25
2023-02-14T12:52:10.572Z,99382.28
2023-02-14T12:54:58.882Z,99380.31
2023-02-14T12:57:31.830Z,99368.38
2023-02-14T13:00:15.194Z,99376.28
2023-02-14T13:03:06.381Z,99369.59
2023-02-14T13:06:22.245Z,99357.03
2023-02-14T13:09:01.446Z,99355.16
2023-02-14T13:11:38.860Z,99349.13
2023-02-14T13:14:05.738Z,99344.75
2023-02-14T13:16:45.762Z,99353.81
2023-02-14T13:19:27.032Z,99343.19
2023-02-14T13:21:58.787Z,99343.84
2023-02-14T13:24:40.866Z,99335.38
2023-02-14T13:27:13.035Z,99336.16
2023-02-14T13:29:50.722Z,99332.59
2023-02-14T13:32:22.488Z,99333.38
2023-02-14T13:34:49.684Z,99331.38
2023-02-14T13:37:20.245Z,99327.03
2023-02-14T13:40:18.806Z,99323.91
2023-02-14T13:42:48.929Z,99332.25
2023-02-14T13:45:50.711Z,99327.19
2023-02-14T13:48:25.431Z,99322.59
2023-02-14T13:50:58.786Z,99328.72
2023-02-14T13:53:39.419Z,99324.81
2023-02-14T13:56:12.068Z,99330.88
2023-02-14T13:58:55.193Z,99322.09
2023-02-14T14:01:42.339Z,99324.38
2023-02-14T14:04:31.894Z,99325.94
2023-02-14T14:07:05.005Z,99329.16
2023-02-14T14:09:40.561Z,99319.59
2023-02-14T14:12:28.989Z,99316.41
2023-02-14T14:15:05.138Z,99325.00
2023-02-14T14:17:38.511Z,99327.31
2023-02-14T14:20:20.455Z,99321.63
2023-02-14T14:22:51.338Z,99310.13
2023-02-14T14:25:37.409Z,99312.22
2023-02-14T14:28:11.984Z,99293.13
2023-02-14T14:30:44.681Z,99295.38
2023-02-14T14:33:29.268Z,99296.75
2023-02-14T14:36:00.459Z,99291.81
2023-02-14T14:38:28.091Z,99282.25
2023-02-14T14:40:55.637Z,99283.88
2023-02-14T14:43:31.498Z,99281.56
2023-02-14T14:46:00.959Z,99277.91
2023-02-14T14:48:31.849Z,99272.75
2023-02-14T14:50:59.847Z,99278.41
2023-02-14T14:53:32.015Z,99281.69
2023-02-14T14:55:59.385Z,99274.56
2023-02-14T14:58:32.256Z,99276.91
2023-02-14T15:00:59.561Z,99268.50
2023-02-14T15:03:28.463Z,99262.00
2023-02-14T15:06:24.738Z,99259.84
2023-02-14T15:08:52.012Z,99257.22
2023-02-14T15:11:42.571Z,99269.94
2023-02-14T15:14:23.110Z,99256.88
2023-02-14T15:17:07.308Z,99255.66
2023-02-14T15:19:41.064Z,99270.94
2023-02-14T15:22:27.044Z,99260.69
2023-02-14T15:24:53.996Z,99253.88
2023-02-14T15:27:26.185Z,99256.16
2023-02-14T15:30:00.397Z,99252.09
2023-02-14T15:32:32.802Z,99255.16
2023-02-14T15:35:07.406Z,99246.53
2023-02-14T15:37:34.733Z,99249.81
2023-02-14T15:40:02.880Z,99251.81
2023-02-14T15:42:33.218Z,99262.59
2023-02-14T15:45:26.224Z,99255.63
2023-02-14T15:48:03.884Z,99253.34
2023-02-14T15:50:42.514Z,99261.69
2023-02-14T15:53:29.054Z,99261.25
2023-02-14T15:56:03.797Z,99248.28
2023-02-14T15:58:32.723Z,99251.06
2023-02-14T16:01:00.685Z,99249.78
2023-02-14T16:03:34.127Z,99253.25
2023-02-14T16:06:01.022Z,99254.41
2023-02-14T16:08:39.969Z,99259.78
2023-02-14T16:11:30.839Z,99258.84
2023-02-14T16:13:58.375Z,99265.63
2023-02-14T16:16:25.215Z,99273.31
2023-02-14T16:18:56.981Z,99267.88
2023-02-14T16:21:29.071Z,99269.22
2023-02-14T16:24:08.295Z,99270.22
2023-02-14T16:26:38.355Z,99278.28
2023-02-14T16:29:06.800Z,99264.72
2023-02-14T16:31:34.376Z,99262.31
2023-02-14T16:34:01.833Z,99263.38
2023-02-14T16:36:35.091Z,99267.59
2023-02-14T16:39:05.121Z,99256.84
2023-02-14T16:41:34.337Z,99254.84
2023-02-14T16:44:01.532Z,99273.38
2023-02-14T16:46:35.251Z,99269.38
2023-02-14T16:49:02.582Z,99267.88
2023-02-14T16:51:34.725Z,99264.38
2023-02-14T16:54:05.641Z,99270.72
2023-02-14T16:56:44.309Z,99263.91
2023-02-14T16:59:11.833Z,99267.06
2023-02-14T17:01:39.137Z,99266.59
2023-02-14T17:04:06.028Z,99256.66
2023-02-14T17:06:34.255Z,99265.75
2023-02-14T17:09:07.411Z,99259.84
2023-02-14T17:11:37.968Z,99265.75
2023-02-14T17:14:05.113Z,99267.81
2023-02-14T17:16:32.459Z,99262.97
2023-02-14T17:19:01.366Z,99265.41
2023-02-14T17:21:29.030Z,99267.47
2023-02-14T17:23:57.254Z,99268.75
2023-02-14T17:26:25.166Z,99269.66
2023-02-14T17:28:52.184Z,99264.72
2023-02-14T17:31:19.091Z,99275.53
2023-02-14T17:33:46.309Z,99272.84
2023-02-14T17:36:14.739Z,99274.47
2023-02-14T17:38:45.260Z,99277.66
2023-02-14T17:41:13.243Z,99284.44
2023-02-14T17:43:46.463Z,99284.88
2023-02-14T17:46:16.644Z,99284.94
2023-02-14T17:48:46.493Z,99287.34
2023-02-14T17:51:15.295Z,99286.94
2023-02-14T17:53:43.004Z,99275.81
2023-02-14T17:56:12.313Z,99284.81
2023-02-14T17:58:39.516Z,99282.38
2023-02-14T18:01:09.651Z,99280.81
2023-02-14T18:03:36.785Z,99276.09
2023-02-14T18:06:04.192Z,99276.81
2023-02-14T18:08:34.525Z,99287.81
2023-02-14T18:11:05.660Z,99264.72
2023-02-14T18:13:33.577Z,99267.94
2023-02-14T18:16:06.146Z,99268.84
2023-02-14T18:18:34.796Z,99271.41
2023-02-14T18:21:03.907Z,99264.75
2023-02-14T18:23:31.374Z,99273.22
2023-02-14T18:26:01.622Z,99267.75
2023-02-14T18:28:28.825Z,99265.75
2023-02-14T18:30:58.377Z,99259.00
2023-02-14T18:33:25.680Z,99267.81
2023-02-14T18:35:52.584Z,99267.38
2023-02-14T18:38:19.874Z,99270.13
2023-02-14T18:40:48.032Z,99266.94
2023-02-14T18:43:15.126Z,99261.41
2023-02-14T18:45:41.916Z,99259.03
2023-02-14T18:48:10.038Z,99260.31
2023-02-14T18:50:36.967Z,99264.31
2023-02-14T18:53:04.834Z,99258.38
2023-02-14T18:55:31.879Z,99264.31
2023-02-14T18:57:58.719Z,99254.75
2023-02-14T19:00:26.422Z,99258.25
2023-02-14T19:02:53.356Z,99249.50
2023-02-14T19:05:20.400Z,99259.34
2023-02-14T19:07:47.317Z,99255.66
2023-02-14T19:10:14.153Z,99254.03
2023-02-14T19:12:40.987Z,99246.06
2023-02-14T19:15:08.516Z,99247.13
2023-02-14T19:17:38.729Z,99241.94
2023-02-14T19:20:09.012Z,99243.09
2023-02-14T19:22:40.715Z,99238.72
2023-02-14T19:25:08.964Z,99242.75
2023-02-14T19:27:37.152Z,99238.50
2023-02-14T19:30:06.858Z,99240.16
2023-02-14T19:32:36.436Z,99231.97
2023-02-14T19:35:04.890Z,99243.06
2023-02-14T19:37:32.878Z,99237.28
2023-02-14T19:39:59.770Z,99229.38
2023-02-14T19:42:26.750Z,99239.13
2023-02-14T19:44:53.565Z,99243.78
2023-02-14T19:47:33.558Z,99232.59
2023-02-14T19:50:09.510Z,99230.97
2023-02-14T19:52:36.593Z,99233.25
2023-02-14T19:55:05.191Z,99226.13
2023-02-14T19:57:32.276Z,99228.06
2023-02-14T19:59:59.606Z,99233.13
2023-02-14T20:02:26.809Z,99228.78
2023-02-14T20:04:58.956Z,99232.38
2023-02-14T20:07:25.945Z,99225.41
2023-02-14T20:09:53.114Z,99221.91
2023-02-14T20:12:20.055Z,99225.97
2023-02-14T20:14:51.694Z,99231.25
2023-02-14T20:17:19.556Z,99237.63
2023-02-14T20:19:46.758Z,99242.69
2023-02-14T20:22:14.829Z,99239.13
2023-02-14T20:24:41.886Z,99227.25
2023-02-14T20:27:08.935Z,99216.13
2023-02-14T20:29:38.891Z,99212.16
2023-02-14T20:32:06.075Z,99221.69
2023-02-14T20:34:33.828Z,99220.91
2023-02-14T20:37:01.001Z,99226.59
2023-02-14T20:39:32.759Z,99227.44
2023-02-14T20:42:00.321Z,99227.53
2023-02-14T20:44:28.794Z,99233.09
2023-02-14T20:46:56.468Z,99228.53
2023-02-14T20:49:28.486Z,99223.88
2023-02-14T20:51:56.414Z,99230.28
2023-02-14T20:54:30.616Z,99218.34
2023-02-14T20:56:58.755Z,99220.78
2023-02-14T20:59:29.100Z,99217.28
2023-02-14T21:02:00.280Z,99217.38
2023-02-14T21:04:28.749Z,99212.31
2023-02-14T21:06:57.999Z,99211.47
2023-02-14T21:09:25.271Z,99200.38
2023-02-14T21:11:54.149Z,99197.19
2023-02-14T21:14:22.680Z,99200.00
2023-02-14T21:16:49.611Z,99198.88
2023-02-14T21:19:17.809Z,99191.91
2023-02-14T21:21:45.608Z,99196.69
2023-02-14T21:24:15.891Z,99190.41
2023-02-14T21:26:43.481Z,99182.56
2023-02-14T21:29:10.583Z,99184.19
2023-02-14T21:31:37.686Z,99186.09
2023-02-14T21:34:04.972Z,99167.09
2023-02-14T21:36:36.401Z,99179.28
2023-02-14T21:39:05.369Z,99180.41
2023-02-14T21:41:33.222Z,99185.50
2023-02-14T21:44:02.290Z,99180.66
2023-02-14T21:46:37.052Z,99185.34
2023-02-14T21:49:25.342Z,99183.31
2023-02-14T21:51:52.533Z,99180.25
2023-02-14T21:54:19.528Z,99179.88
2023-02-14T21:56:46.406Z,99174.81
2023-02-14T21:59:13.839Z,99171.31
2023-02-14T22:01:42.643Z,99169.34
2023-02-14T22:04:12.617Z,99183.84
2023-02-14T22:06:41.951Z,99176.84
2023-02-14T22:09:11.457Z,99181.94
2023-02-14T22:11:40.785Z,99168.06
2023-02-14T22:14:08.883Z,99183.03
2023-02-14T22:16:37.006Z,99177.97
2023-02-14T22:19:05.493Z,99176.72
2023-02-14T22:21:33.658Z,99178.25
2023-02-14T22:24:01.733Z,99174.19
2023-02-14T22:26:35.637Z,99174.50
2023-02-14T22:29:03.346Z,99172.94
2023-02-14T22:31:37.938Z,99170.13
2023-02-14T22:34:06.213Z,99168.06
2023-02-14T22:36:33.561Z,99157.31
2023-02-14T22:39:01.415Z,99155.25
2023-02-14T22:41:31.309Z,99153.19
2023-02-14T22:43:59.406Z,99149.94
2023-02-14T22:46:27.933Z,99145.97
2023-02-14T22:48:56.427Z,99139.72
2023-02-14T22:51:37.253Z,99149.94
2023-02-14T22:54:08.070Z,99146.47
2023-02-14T22:56:39.321Z,99149.94
2023-02-14T22:59:14.242Z,99146.47
2023-02-14T23:01:42.480Z,99142.66
2023-02-14T23:04:09.518Z,99141.63
2023-02-14T23:06:37.766Z,99141.72
2023-02-14T23:09:06.953Z,99124.44
2023-02-14T23:11:36.755Z,99132.91
2023-02-14T23:14:23.281Z,99140.47
2023-02-14T23:17:09.215Z,99122.75
2023-02-14T23:19:56.184Z,99130.28
2023-02-14T23:22:27.416Z,99131.00
2023-02-14T23:24:58.097Z,99124.56
2023-02-14T23:27:30.829Z,99119.00
2023-02-14T23:29:59.614Z,99111.25
2023-02-14T23:32:27.311Z,99113.94
2023-02-14T23:34:54.672Z,99113.66
2023-02-14T23:37:21.883Z,99119.97
2023-02-14T23:39:48.822Z,99104.69
2023-02-14T23:42:16.300Z,99111.03
2023-02-14T23:44:45.891Z,99107.94
2023-02-14T23:47:16.130Z,99108.72
2023-02-14T23:49:43.886Z,99099.97
2023-02-14T23:52:12.658Z,99107.50
2023-02-14T23:54:41.160Z,99094.06
2023-02-14T23:57:09.964Z,99097.56
2023-02-14T23:59:37.040Z,99097.91
